Time;durP1;ratioP1;P1;durP2;ratioP2;P2;SDS_P1;SDS_P2;PMS_P1;PMS_P2;Temp;Humidity;BMP_temperature;BMP_pressure;BME280_temperature;BME280_humidity;BME280_pressure;Samples;Min_cycle;Max_cycle;Signal;HPM_P1;HPM_P2
2020/12/09 00:01:54;;;;;;;11.30;6.65;;;;;;;2.91;86.63;99870.84;4976884;28;20483;-78
2020/12/09 00:04:20;;;;;;;13.70;8.38;;;;;;;2.92;87.05;99877.81;4977161;28;20065;-78
2020/12/09 00:06:46;;;;;;;16.88;8.77;;;;;;;2.63;87.32;99841.97;4976796;28;20038;-78
2020/12/09 00:09:13;;;;;;;13.25;7.70;;;;;;;2.85;87.27;99883.28;4994161;28;20442;-77
2020/12/09 00:11:40;;;;;;;16.13;8.70;;;;;;;2.72;87.69;99879.38;4960680;28;20033;-78
2020/12/09 00:14:07;;;;;;;16.05;8.65;;;;;;;2.84;87.44;99872.81;4994089;28;20038;-78
2020/12/09 00:16:33;;;;;;;14.07;8.40;;;;;;;2.81;87.52;99868.53;4994115;28;20088;-78
2020/12/09 00:18:59;;;;;;;16.13;8.90;;;;;;;2.73;87.50;99862.66;4976434;28;20038;-76
2020/12/09 00:21:25;;;;;;;13.80;7.93;;;;;;;2.79;87.64;99891.41;4993927;28;20542;-78
2020/12/09 00:23:52;;;;;;;15.93;8.70;;;;;;;2.75;87.64;99883.66;4976437;28;20077;-77
2020/12/09 00:26:25;;;;;;;14.07;8.55;;;;;;;2.78;87.88;99888.81;4976764;28;20049;-76
2020/12/09 00:28:51;;;;;;;;;;;;;;;2.76;87.77;99888.88;4994143;28;20258;-80
2020/12/09 00:31:18;;;;;;;15.25;8.43;;;;;;;2.74;88.04;99882.81;4976705;28;20040;-77
2020/12/09 00:33:48;;;;;;;15.00;8.70;;;;;;;2.69;88.10;99879.47;4976178;28;20117;-77
2020/12/09 00:36:17;;;;;;;15.02;8.77;;;;;;;2.45;88.11;99851.34;4976313;28;20034;-78
2020/12/09 00:38:44;;;;;;;15.27;8.50;;;;;;;2.69;88.10;99882.09;4960224;28;20504;-78
2020/12/09 00:41:17;;;;;;;15.77;8.85;;;;;;;2.77;88.07;99877.44;4993701;28;20088;-78
2020/12/09 00:43:43;;;;;;;16.50;9.02;;;;;;;2.67;87.91;99865.50;4976202;28;20121;-77
2020/12/09 00:46:14;;;;;;;15.65;9.00;;;;;;;2.72;88.04;99875.88;4993582;28;20168;-79
2020/12/09 00:48:39;;;;;;;15.00;8.57;;;;;;;2.71;88.05;99866.25;4993637;28;20034;-78
2020/12/09 00:51:25;;;;;;;13.07;8.43;;;;;;;2.59;88.42;99863.09;4976082;28;20057;-80
2020/12/09 00:53:51;;;;;;;16.88;9.40;;;;;;;2.60;88.66;99856.06;4992728;28;20501;-76
2020/12/09 00:56:16;;;;;;;15.70;9.00;;;;;;;2.56;88.70;99865.00;4994011;28;20042;-79
2020/12/09 00:58:42;;;;;;;14.57;9.20;;;;;;;2.55;88.85;99865.91;4976725;28;20329;-77
2020/12/09 01:01:09;;;;;;;16.90;9.48;;;;;;;2.42;89.13;99843.56;4975495;28;20084;-78
2020/12/09 01:03:35;;;;;;;15.77;8.70;;;;;;;2.47;89.25;99845.09;4993860;28;20033;-78
2020/12/09 01:06:03;;;;;;;18.55;9.88;;;;;;;2.46;89.44;99847.78;4993118;28;20069;-78
2020/12/09 01:08:28;;;;;;;17.58;9.10;;;;;;;2.41;89.10;99842.66;4976683;28;20423;-78
2020/12/09 01:10:55;;;;;;;17.48;9.35;;;;;;;2.45;89.46;99838.16;4975801;28;20034;-78
2020/12/09 01:13:21;;;;;;;17.15;9.27;;;;;;;2.36;89.33;99814.78;4993419;28;20058;-78
2020/12/09 01:15:46;;;;;;;14.35;8.40;;;;;;;2.22;89.34;99804.69;4993247;28;20069;-79
2020/12/09 01:18:11;;;;;;;17.48;9.63;;;;;;;2.42;89.45;99848.81;4976297;28;20126;-77
2020/12/09 01:20:37;;;;;;;14.55;9.55;;;;;;;2.45;89.39;99860.09;4993576;28;20372;-78
2020/12/09 01:23:03;;;;;;;17.05;9.93;;;;;;;2.47;89.22;99853.00;4993432;28;20038;-78
2020/12/09 01:25:29;;;;;;;16.70;9.60;;;;;;;2.45;89.28;99851.34;4993353;28;20096;-77
2020/12/09 01:27:58;;;;;;;16.60;9.10;;;;;;;2.50;88.99;99844.97;4975571;28;20034;-77
2020/12/09 01:30:23;;;;;;;17.10;9.25;;;;;;;2.47;89.25;99850.38;4993201;28;20087;-79
2020/12/09 01:32:49;;;;;;;15.45;8.80;;;;;;;2.56;88.86;99852.69;4975704;28;20038;-78
2020/12/09 01:35:15;;;;;;;13.70;8.38;;;;;;;2.56;88.75;99846.56;4993056;28;20036;-79
2020/12/09 01:37:41;;;;;;;16.33;8.13;;;;;;;2.55;89.00;99844.84;4975623;28;20031;-76
2020/12/09 01:40:06;;;;;;;16.33;8.80;;;;;;;2.50;89.03;99839.72;4993130;28;20121;-77
2020/12/09 01:42:32;;;;;;;17.02;9.60;;;;;;;2.16;88.88;99792.63;4975788;28;20042;-77
2020/12/09 01:44:57;;;;;;;17.25;8.73;;;;;;;2.51;88.98;99851.09;4992778;28;20045;-77
2020/12/09 01:47:23;;;;;;;16.52;9.40;;;;;;;2.50;88.98;99846.75;4975743;28;20046;-78
2020/12/09 01:49:48;;;;;;;16.40;9.00;;;;;;;2.49;89.04;99839.78;4975198;28;20046;-77
2020/12/09 01:52:15;;;;;;;16.45;9.32;;;;;;;2.42;89.22;99849.66;4959506;28;20054;-76
2020/12/09 01:54:40;;;;;;;18.52;9.85;;;;;;;2.35;89.15;99840.25;4992670;28;20035;-77
2020/12/09 01:57:14;;;;;;;18.40;9.52;;;;;;;2.40;89.16;99842.72;4975636;28;20037;-77
2020/12/09 01:59:40;;;;;;;17.83;9.25;;;;;;;2.41;89.23;99844.44;4992920;28;20527;-78
2020/12/09 02:02:07;;;;;;;18.00;9.68;;;;;;;2.40;89.17;99837.44;4975809;28;20121;-78
2020/12/09 02:04:34;;;;;;;16.23;8.63;;;;;;;2.40;89.50;99846.19;4993070;28;20070;-77
2020/12/09 02:07:00;;;;;;;17.65;9.90;;;;;;;2.42;89.25;99854.06;4992580;28;20109;-78
2020/12/09 02:09:26;;;;;;;16.65;9.43;;;;;;;2.36;89.51;99843.75;4993040;28;20062;-76
2020/12/09 02:11:53;;;;;;;17.95;10.00;;;;;;;2.33;89.32;99842.06;4977079;28;20455;-78
2020/12/09 02:14:19;;;;;;;14.95;9.40;;;;;;;2.22;89.50;99820.50;4978992;28;20109;-81
2020/12/09 02:16:55;;;;;;;21.58;9.68;;;;;;;2.33;89.55;99834.19;4996226;28;20117;-79
2020/12/09 02:19:21;;;;;;;15.55;8.80;;;;;;;2.32;89.70;99836.84;4978886;28;20077;-81
2020/12/09 02:21:47;;;;;;;17.15;9.05;;;;;;;2.32;89.66;99850.00;4978417;28;20133;-79
2020/12/09 02:24:14;;;;;;;15.82;8.95;;;;;;;2.33;89.77;99854.38;4996480;28;20045;-81
2020/12/09 02:26:48;;;;;;;15.77;9.32;;;;;;;2.34;89.52;99845.56;4996315;28;20129;-78
2020/12/09 02:29:13;;;;;;;15.52;9.07;;;;;;;2.29;89.63;99843.94;4979090;28;20034;-77
2020/12/09 02:31:39;;;;;;;16.40;9.15;;;;;;;2.08;89.45;99802.53;4978580;28;20056;-78
2020/12/09 02:34:06;;;;;;;14.60;8.90;;;;;;;2.32;89.44;99843.00;4995749;28;20468;-75
2020/12/09 02:36:31;;;;;;;15.95;8.95;;;;;;;2.35;89.18;99839.38;4996060;28;20026;-77
2020/12/09 02:38:57;;;;;;;17.88;9.70;;;;;;;2.38;89.27;99834.00;4978162;28;20036;-77
2020/12/09 02:41:23;;;;;;;19.40;10.48;;;;;;;2.27;89.24;99823.84;4996146;28;20053;-78
2020/12/09 02:43:48;;;;;;;17.98;10.15;;;;;;;2.27;89.47;99819.44;4995550;28;20476;-78
2020/12/09 02:46:14;;;;;;;18.08;10.15;;;;;;;1.95;89.59;99764.41;4978652;28;20049;-77
2020/12/09 02:48:39;;;;;;;18.42;10.40;;;;;;;2.27;89.65;99824.72;4996360;28;20456;-78
2020/12/09 02:51:05;;;;;;;20.58;10.75;;;;;;;2.30;89.60;99818.47;4995730;28;20500;-77
2020/12/09 02:53:30;;;;;;;17.58;9.95;;;;;;;2.10;89.81;99795.44;4995620;28;20033;-78
2020/12/09 02:55:56;;;;;;;16.58;9.75;;;;;;;2.28;89.65;99813.25;4978080;28;20137;-77
2020/12/09 02:58:21;;;;;;;20.98;11.30;;;;;;;2.27;89.62;99814.19;4978160;28;20038;-78
2020/12/09 03:00:47;;;;;;;18.98;11.18;;;;;;;2.25;90.06;99816.00;4995324;28;20417;-78
2020/12/09 03:03:12;;;;;;;18.08;10.48;;;;;;;2.32;89.66;99821.03;4995436;28;20058;-80
2020/12/09 03:05:37;;;;;;;19.10;10.02;;;;;;;2.32;89.84;99826.31;4962365;28;20044;-78
2020/12/09 03:08:03;;;;;;;18.15;10.63;;;;;;;2.30;89.93;99818.47;4977955;28;20392;-81
2020/12/09 03:10:29;;;;;;;19.63;9.75;;;;;;;2.28;89.79;99820.31;4995396;28;20157;-77
2020/12/09 03:12:54;;;;;;;17.17;9.30;;;;;;;2.32;89.73;99808.78;4977960;28;20031;-76
2020/12/09 03:15:20;;;;;;;19.35;10.48;;;;;;;2.21;89.79;99792.47;4977891;28;20498;-77
2020/12/09 03:17:45;;;;;;;19.05;10.82;;;;;;;2.26;89.68;99807.19;4994857;28;20041;-78
2020/12/09 03:20:10;;;;;;;20.10;11.32;;;;;;;1.87;89.88;99745.38;4995130;28;20061;-76
2020/12/09 03:22:36;;;;;;;19.08;11.10;;;;;;;2.16;89.88;99792.63;4976834;28;20046;-79
2020/12/09 03:25:01;;;;;;;20.35;11.20;;;;;;;2.19;90.40;99796.91;4977235;28;20045;-78
2020/12/09 03:27:27;;;;;;;20.95;11.25;;;;;;;1.88;90.25;99736.56;4977923;28;20072;-78
2020/12/09 03:29:53;;;;;;;20.95;9.90;;;;;;;2.09;90.28;99766.56;4994779;28;20089;-78
2020/12/09 03:32:18;;;;;;;18.13;9.88;;;;;;;2.11;90.17;99770.84;4977805;28;20034;-77
2020/12/09 03:34:43;;;;;;;20.13;11.10;;;;;;;1.95;89.91;99749.47;4977458;28;20034;-78
2020/12/09 03:37:12;;;;;;;19.70;10.57;;;;;;;2.17;90.11;99796.13;4994488;28;20045;-78
2020/12/09 03:39:37;;;;;;;20.77;11.88;;;;;;;2.12;90.02;99779.59;4977409;28;20162;-77
2020/12/09 03:42:03;;;;;;;20.50;10.55;;;;;;;2.20;90.05;99796.88;4977302;28;20575;-77
2020/12/09 03:44:28;;;;;;;18.85;10.27;;;;;;;2.24;90.17;99798.50;4994792;28;20118;-78
2020/12/09 03:46:57;;;;;;;18.90;10.75;;;;;;;2.31;89.96;99791.25;4994289;28;20113;-77
2020/12/09 03:49:25;;;;;;;19.20;10.50;;;;;;;2.21;89.85;99769.63;4977486;28;20565;-79
2020/12/09 03:51:51;;;;;;;18.33;10.30;;;;;;;2.23;90.08;99775.72;4976717;28;20061;-77
2020/12/09 03:54:17;;;;;;;17.17;10.20;;;;;;;2.31;90.17;99783.34;4994372;28;20050;-78
2020/12/09 03:56:42;;;;;;;19.42;9.68;;;;;;;1.87;89.95;99716.44;4994799;28;20030;-76
2020/12/09 03:59:08;;;;;;;16.77;9.80;;;;;;;2.32;89.80;99789.47;4977113;28;20125;-77
2020/12/09 04:01:33;;;;;;;18.77;9.93;;;;;;;2.35;89.67;99773.59;4994627;28;20030;-78
2020/12/09 04:03:59;;;;;;;17.50;9.25;;;;;;;2.30;89.68;99777.22;4994201;28;20065;-78
2020/12/09 04:06:25;;;;;;;18.55;9.20;;;;;;;2.14;89.62;99748.88;4961262;28;20034;-78
2020/12/09 04:08:50;;;;;;;17.70;9.18;;;;;;;2.29;89.50;99775.50;4976629;28;20034;-77
2020/12/09 04:11:16;;;;;;;16.73;9.07;;;;;;;2.14;89.46;99744.47;4977179;28;20074;-77
2020/12/09 04:13:41;;;;;;;16.58;9.07;;;;;;;2.06;89.60;99735.09;4976941;28;20547;-79
2020/12/09 04:16:06;;;;;;;17.70;9.05;;;;;;;2.25;89.78;99757.25;4993858;28;20038;-79
2020/12/09 04:18:32;;;;;;;16.95;9.15;;;;;;;2.34;89.45;99761.34;4994245;28;20043;-79
2020/12/09 04:20:57;;;;;;;16.38;9.07;;;;;;;2.33;89.55;99759.63;4993757;28;20443;-77
2020/12/09 04:23:22;;;;;;;17.92;9.13;;;;;;;2.34;89.25;99766.59;4993987;28;20121;-78
2020/12/09 04:25:48;;;;;;;14.60;7.78;;;;;;;2.19;89.11;99728.50;4994468;28;20121;-79
2020/12/09 04:28:13;;;;;;;17.02;9.32;;;;;;;2.24;89.21;99756.41;4993592;28;20034;-79
2020/12/09 04:30:38;;;;;;;13.85;8.40;;;;;;;2.33;89.12;99785.94;4976472;28;20035;-78
2020/12/09 04:33:04;;;;;;;18.23;9.15;;;;;;;2.24;88.98;99761.66;4993596;28;20037;-78
2020/12/09 04:35:29;;;;;;;15.98;7.97;;;;;;;2.32;89.18;99769.28;4976573;28;20121;-78
2020/12/09 04:37:55;;;;;;;15.30;8.40;;;;;;;2.22;89.04;99747.69;4975981;28;20443;-77
2020/12/09 04:40:26;;;;;;;17.35;9.02;;;;;;;2.34;89.07;99766.59;4994068;28;20037;-79
2020/12/09 04:42:57;;;;;;;18.98;9.40;;;;;;;2.24;89.23;99777.44;4993823;28;20089;-77
2020/12/09 04:45:22;;;;;;;15.88;8.70;;;;;;;2.36;89.01;99780.56;4976436;28;20034;-78
2020/12/09 04:48:03;;;;;;;16.83;8.20;;;;;;;2.38;88.74;99784.84;4993500;28;20046;-81
2020/12/09 04:50:34;;;;;;;14.88;8.52;;;;;;;2.34;88.84;99780.63;4993329;28;20100;-82
2020/12/09 04:53:24;;;;;;;15.73;8.43;;;;;;;2.32;88.78;99781.56;4993554;28;20125;-77
2020/12/09 04:55:54;;;;;;;16.23;9.02;;;;;;;2.24;88.56;99772.19;4993631;28;20033;-77
2020/12/09 04:58:38;;;;;;;16.08;8.35;;;;;;;2.33;88.55;99764.91;4993898;28;20031;-79
2020/12/09 05:01:08;;;;;;;;;;;;;;;2.29;89.02;99772.00;4993691;28;20030;-78
2020/12/09 05:03:47;;;;;;;15.00;8.07;;;;;;;2.35;88.50;99776.22;4993719;28;19956;-78
2020/12/09 05:06:18;;;;;;;16.45;8.80;;;;;;;2.29;88.55;99759.72;4993164;28;20141;-78
2020/12/09 05:08:56;;;;;;;18.45;9.25;;;;;;;2.31;88.65;99772.81;4993394;28;20031;-77
2020/12/09 05:11:23;;;;;;;17.02;9.00;;;;;;;2.29;88.66;99780.75;4975953;28;20041;-77
2020/12/09 05:13:54;;;;;;;16.02;7.80;;;;;;;2.16;88.72;99758.41;4993475;28;20035;-77
2020/12/09 05:16:21;;;;;;;16.50;8.65;;;;;;;2.22;88.49;99754.69;4960261;28;20433;-79
2020/12/09 05:18:50;;;;;;;16.40;8.70;;;;;;;2.29;88.48;99772.00;4993549;28;20038;-79
2020/12/09 05:21:21;;;;;;;16.92;8.38;;;;;;;2.19;88.45;99766.19;4993218;28;20049;-80
2020/12/09 05:23:52;;;;;;;18.80;8.70;;;;;;;2.28;88.63;99767.66;4993249;28;20038;-78
2020/12/09 05:26:21;;;;;;;15.52;8.60;;;;;;;2.34;88.65;99779.78;4993250;28;20101;-76
2020/12/09 05:28:48;;;;;;;15.82;8.43;;;;;;;2.32;88.50;99778.94;4993428;28;20049;-77
2020/12/09 05:31:22;;;;;;;18.25;9.38;;;;;;;2.21;88.23;99761.75;4992946;28;20038;-78
2020/12/09 05:33:48;;;;;;;16.10;8.60;;;;;;;2.32;88.33;99764.03;4993129;28;20089;-77
2020/12/09 05:36:13;;;;;;;17.05;8.77;;;;;;;2.35;88.15;99757.78;4992783;28;20034;-77
2020/12/09 05:38:39;;;;;;;16.20;8.45;;;;;;;2.09;88.42;99725.31;4993077;28;20112;-78
2020/12/09 05:41:12;;;;;;;15.02;7.93;;;;;;;2.26;88.16;99758.97;4992895;28;20031;-79
2020/12/09 05:43:44;;;;;;;14.93;8.53;;;;;;;2.38;88.02;99773.47;4993254;28;20062;-75
2020/12/09 05:46:09;;;;;;;15.02;7.90;;;;;;;2.36;88.33;99767.41;4976292;28;20260;-78
2020/12/09 05:48:35;;;;;;;13.63;8.35;;;;;;;2.13;88.18;99716.44;4963172;28;20369;-80
2020/12/09 05:51:01;;;;;;;15.32;8.07;;;;;;;2.33;88.05;99755.22;4996293;28;20085;-79
2020/12/09 05:53:28;;;;;;;13.88;7.70;;;;;;;2.33;88.52;99763.13;4979411;28;20117;-78
2020/12/09 05:56:18;;;;;;;15.48;8.48;;;;;;;2.40;87.93;99755.84;4996469;28;20521;-78
2020/12/09 05:58:45;;;;;;;17.10;9.02;;;;;;;2.34;87.67;99753.44;4996688;28;20026;-80
2020/12/09 06:01:18;;;;;;;17.13;8.35;;;;;;;2.03;87.95;99709.78;4978812;28;20037;-80
2020/12/09 06:03:46;;;;;;;17.27;8.45;;;;;;;2.36;88.17;99762.16;4996874;28;20053;-82
2020/12/09 06:06:12;;;;;;;15.45;8.52;;;;;;;2.26;88.16;99746.66;4996413;28;20050;-80
2020/12/09 06:09:00;;;;;;;16.30;8.65;;;;;;;2.20;87.78;99733.72;4979059;28;20035;-78
2020/12/09 06:11:33;;;;;;;14.32;8.50;;;;;;;2.38;87.88;99765.56;4978237;28;20409;-77
2020/12/09 06:13:59;;;;;;;;;;;;;;;2.43;87.57;99782.09;4996342;28;20100;-77
2020/12/09 06:16:25;;;;;;;17.30;7.93;;;;;;;2.42;87.74;99760.16;4996162;28;19940;-78
2020/12/09 06:18:55;;;;;;;18.15;9.20;;;;;;;2.36;87.50;99762.16;4996119;28;20034;-77
2020/12/09 06:21:23;;;;;;;14.80;6.95;;;;;;;2.44;87.16;99766.25;4996339;28;20442;-77
2020/12/09 06:23:49;;;;;;;17.40;8.20;;;;;;;2.19;87.69;99732.00;4978863;28;20037;-77
2020/12/09 06:26:15;;;;;;;15.15;8.30;;;;;;;2.44;87.48;99775.91;4978556;28;20508;-75
2020/12/09 06:28:46;;;;;;;14.32;8.18;;;;;;;2.36;87.55;99775.31;4996279;28;20395;-77
2020/12/09 06:31:22;;;;;;;15.55;7.70;;;;;;;2.46;87.35;99777.56;4978636;28;20077;-76
2020/12/09 06:33:48;;;;;;;15.68;8.60;;;;;;;2.43;87.52;99772.41;4996121;28;20030;-75
2020/12/09 06:36:25;;;;;;;16.25;8.45;;;;;;;2.37;87.66;99750.69;4995711;28;20380;-73
2020/12/09 06:39:11;;;;;;;15.00;8.25;;;;;;;2.51;87.25;99756.31;4978644;28;20034;-77
2020/12/09 06:41:46;;;;;;;16.20;7.88;;;;;;;2.48;87.18;99764.34;4996090;28;20033;-76
2020/12/09 06:44:14;;;;;;;15.02;8.30;;;;;;;2.46;87.56;99776.72;4995646;28;20038;-76
2020/12/09 06:46:47;;;;;;;14.73;7.72;;;;;;;2.45;87.04;99751.31;4995871;28;20066;-76
2020/12/09 06:49:28;;;;;;;;;;;;;;;2.49;86.97;99760.78;4978449;28;20387;-76
2020/12/09 06:51:58;;;;;;;15.32;7.55;;;;;;;2.51;87.42;99780.03;4995766;28;19918;-75
2020/12/09 06:54:41;;;;;;;18.05;8.60;;;;;;;2.42;87.07;99756.69;4978794;28;20499;-77
2020/12/09 06:57:20;;;;;;;13.48;7.60;;;;;;;2.49;87.13;99766.91;4994783;28;20492;-75
2020/12/09 06:59:47;;;;;;;15.43;7.68;;;;;;;2.55;87.04;99765.84;4995779;28;20136;-76
2020/12/09 07:02:43;;;;;;;15.95;8.48;;;;;;;2.58;86.94;99765.75;4995596;28;20523;-75
2020/12/09 07:05:10;;;;;;;15.23;8.57;;;;;;;2.51;86.81;99754.59;4993505;28;20046;-77
2020/12/09 07:07:45;;;;;;;14.30;7.72;;;;;;;2.61;86.58;99768.28;4962278;28;20442;-78
2020/12/09 07:10:20;;;;;;;14.75;7.75;;;;;;;2.65;86.61;99774.28;4977670;28;20039;-77
2020/12/09 07:13:00;;;;;;;17.80;7.90;;;;;;;2.58;86.53;99761.34;4995254;28;20506;-75
2020/12/09 07:15:28;;;;;;;15.35;7.85;;;;;;;2.62;86.30;99745.44;4994942;28;20049;-77
2020/12/09 07:17:54;;;;;;;15.35;8.20;;;;;;;2.48;86.29;99725.72;4995378;28;20034;-77
2020/12/09 07:20:19;;;;;;;14.43;8.63;;;;;;;2.52;86.04;99723.84;4995042;28;20026;-76
2020/12/09 07:22:44;;;;;;;18.65;8.88;;;;;;;2.81;85.83;99773.69;4995565;28;20030;-78
2020/12/09 07:25:10;;;;;;;15.40;8.50;;;;;;;2.73;85.86;99752.03;4977781;28;20034;-77
2020/12/09 07:27:37;;;;;;;14.00;8.23;;;;;;;2.64;85.69;99727.81;4995438;28;20096;-76
2020/12/09 07:30:08;;;;;;;14.70;8.15;;;;;;;2.90;85.41;99769.03;4978294;28;20042;-76
2020/12/09 07:32:35;;;;;;;15.23;7.70;;;;;;;2.83;85.26;99756.06;4977944;28;20039;-77
2020/12/09 07:35:14;;;;;;;19.13;8.38;;;;;;;2.77;85.27;99729.94;4995770;28;20026;-75
2020/12/09 07:37:43;;;;;;;15.93;8.10;;;;;;;2.97;84.78;99754.69;4977996;28;20399;-77
2020/12/09 07:40:10;;;;;;;16.23;8.23;;;;;;;3.11;84.51;99768.22;4977278;28;20041;-77
2020/12/09 07:42:35;;;;;;;16.15;8.32;;;;;;;3.16;84.62;99768.88;4945508;28;20439;-75
2020/12/09 07:45:01;;;;;;;13.05;7.72;;;;;;;3.00;84.35;99733.50;4994995;28;20044;-76
2020/12/09 07:47:28;;;;;;;16.42;8.57;;;;;;;3.22;84.31;99763.41;4961245;28;20042;-75
2020/12/09 07:49:56;;;;;;;16.55;8.20;;;;;;;3.29;83.89;99775.44;4977101;28;20073;-76
2020/12/09 07:52:31;;;;;;;16.85;8.80;;;;;;;3.35;84.12;99769.06;4994413;28;20078;-75
2020/12/09 07:55:02;;;;;;;15.48;8.93;;;;;;;3.21;83.80;99732.69;4994655;28;20096;-75
2020/12/09 07:57:32;;;;;;;17.33;8.35;;;;;;;3.28;82.99;99725.38;4976930;28;20217;-76
2020/12/09 07:59:59;;;;;;;14.15;8.43;;;;;;;3.43;82.95;99754.66;4994740;28;20129;-76
2020/12/09 08:02:26;;;;;;;18.73;8.95;;;;;;;3.62;82.92;99775.03;4994473;28;20037;-76
2020/12/09 08:05:10;;;;;;;15.70;8.32;;;;;;;3.63;82.54;99769.69;4994466;28;20041;-77
2020/12/09 08:07:58;;;;;;;14.07;7.72;;;;;;;3.73;82.74;99775.47;4994757;28;20428;-76
2020/12/09 08:10:32;;;;;;;16.73;8.27;;;;;;;3.73;82.29;99764.91;4976612;28;20058;-76
2020/12/09 08:13:20;;;;;;;16.75;8.40;;;;;;;3.79;81.86;99767.31;4977189;28;20383;-75
2020/12/09 08:15:59;;;;;;;15.75;7.72;;;;;;;3.91;81.42;99763.31;4994374;28;20034;-76
2020/12/09 08:18:24;;;;;;;15.63;8.32;;;;;;;3.82;81.41;99743.44;4994241;28;20038;-75
2020/12/09 08:20:51;;;;;;;15.38;8.50;;;;;;;4.08;80.98;99770.56;4994106;28;20092;-76
2020/12/09 08:23:17;;;;;;;14.13;8.07;;;;;;;3.83;80.72;99720.56;4994326;28;20049;-75
2020/12/09 08:25:49;;;;;;;20.88;9.38;;;;;;;4.18;80.60;99767.47;4994095;28;20039;-75
2020/12/09 08:28:19;;;;;;;16.60;8.50;;;;;;;4.03;79.95;99737.28;4993906;28;20031;-75
2020/12/09 08:30:44;;;;;;;15.48;8.77;;;;;;;4.24;80.30;99768.97;4976590;28;20034;-76
2020/12/09 08:33:09;;;;;;;14.00;8.20;;;;;;;4.20;79.93;99762.13;4993446;28;20044;-75
2020/12/09 08:35:50;;;;;;;16.47;9.03;;;;;;;4.26;80.05;99759.25;4993921;28;20053;-75
2020/12/09 08:38:28;;;;;;;15.88;8.10;;;;;;;4.41;79.69;99768.28;4993894;28;20254;-77
2020/12/09 08:40:57;;;;;;;12.70;7.15;;;;;;;4.43;79.00;99756.72;4994199;28;20030;-76
2020/12/09 08:43:28;;;;;;;14.85;7.95;;;;;;;4.54;78.67;99759.78;4993920;28;20026;-75
2020/12/09 08:45:53;;;;;;;14.80;7.80;;;;;;;4.59;78.49;99759.56;4993732;28;20049;-75
2020/12/09 08:48:19;;;;;;;16.13;8.65;;;;;;;4.64;78.13;99764.66;4993643;28;20113;-76
2020/12/09 08:50:46;;;;;;;17.60;8.70;;;;;;;4.47;78.42;99736.34;4976457;28;20133;-77
2020/12/09 08:53:12;;;;;;;14.80;8.23;;;;;;;4.54;78.58;99722.81;4993610;28;20031;-75
2020/12/09 08:55:38;;;;;;;18.08;8.50;;;;;;;4.87;77.65;99756.56;4994035;28;20039;-77
2020/12/09 08:58:03;;;;;;;16.88;8.68;;;;;;;4.98;77.41;99762.22;4993736;28;20030;-77
2020/12/09 09:00:29;;;;;;;17.20;8.23;;;;;;;5.03;77.13;99744.38;4975881;28;20065;-77
2020/12/09 09:02:56;;;;;;;16.60;8.25;;;;;;;5.13;76.31;99748.31;4976485;28;20049;-76
2020/12/09 09:05:23;;;;;;;17.00;8.20;;;;;;;5.29;76.42;99763.47;4993622;28;20069;-76
2020/12/09 09:07:48;;;;;;;16.73;8.55;;;;;;;5.39;75.47;99764.75;4976419;28;20043;-76
2020/12/09 09:10:14;;;;;;;16.77;8.82;;;;;;;5.37;75.29;99750.75;4993395;28;20061;-75
2020/12/09 09:12:39;;;;;;;13.93;8.05;;;;;;;5.34;76.05;99756.19;4976380;28;20387;-76
2020/12/09 09:15:05;;;;;;;19.75;8.88;;;;;;;5.41;76.17;99776.16;4975899;28;20062;-75
2020/12/09 09:17:30;;;;;;;14.73;7.95;;;;;;;5.31;75.29;99749.28;4993524;28;20042;-76
2020/12/09 09:19:58;;;;;;;14.85;8.20;;;;;;;5.34;74.96;99766.78;4976217;28;20045;-74
2020/12/09 09:22:23;;;;;;;17.88;8.60;;;;;;;5.35;75.69;99747.31;4996488;28;20030;-76
2020/12/09 09:24:48;;;;;;;17.10;8.38;;;;;;;5.40;74.96;99738.25;4997424;28;20060;-76
2020/12/09 09:27:14;;;;;;;17.10;8.45;;;;;;;5.43;75.38;99748.69;4979835;28;20041;-76
2020/12/09 09:29:39;;;;;;;16.38;8.25;;;;;;;5.45;75.51;99753.91;4997195;28;20030;-75
2020/12/09 09:32:05;;;;;;;14.13;7.78;;;;;;;5.34;75.78;99750.91;4997648;28;20411;-75
2020/12/09 09:34:32;;;;;;;14.73;7.95;;;;;;;5.34;75.95;99750.91;4997147;28;20031;-76
2020/12/09 09:36:57;;;;;;;12.75;7.75;;;;;;;5.25;75.35;99735.47;4963912;28;20042;-74
2020/12/09 09:39:23;;;;;;;16.58;7.28;;;;;;;5.20;75.71;99708.38;4996928;28;20534;-76
2020/12/09 09:41:48;;;;;;;16.35;8.35;;;;;;;5.35;75.58;99720.88;4979660;28;20425;-75
2020/12/09 09:44:13;;;;;;;14.55;7.93;;;;;;;5.35;75.02;99719.09;4979277;28;20035;-77
2020/12/09 09:46:39;;;;;;;15.20;8.07;;;;;;;5.18;75.09;99685.50;4996880;28;20375;-75
2020/12/09 09:49:04;;;;;;;18.35;8.27;;;;;;;5.56;75.02;99735.72;4979467;28;20466;-76
2020/12/09 09:51:30;;;;;;;14.50;8.25;;;;;;;5.49;75.29;99718.41;4996279;28;20447;-75
2020/12/09 09:53:55;;;;;;;14.63;7.72;;;;;;;5.43;75.26;99718.72;4979513;28;20133;-76
2020/12/09 09:56:24;;;;;;;13.40;7.30;;;;;;;5.15;75.18;99664.50;4996732;28;20137;-76
2020/12/09 09:58:49;;;;;;;13.75;7.50;;;;;;;5.59;75.54;99716.19;4979379;28;20026;-76
2020/12/09 10:01:15;;;;;;;14.95;7.72;;;;;;;5.56;75.09;99714.56;4996531;28;20030;-77
2020/12/09 10:03:40;;;;;;;12.77;7.55;;;;;;;5.39;75.58;99715.34;4996869;28;20093;-77
2020/12/09 10:06:06;;;;;;;13.68;7.50;;;;;;;5.40;75.62;99703.00;4996831;28;20073;-76
2020/12/09 10:08:31;;;;;;;15.05;7.88;;;;;;;5.53;75.34;99720.00;4978974;28;20117;-74
2020/12/09 10:11:01;;;;;;;14.98;7.45;;;;;;;5.52;74.77;99723.59;4996571;28;20065;-75
2020/12/09 10:13:26;;;;;;;13.30;7.43;;;;;;;5.42;74.86;99707.28;4978892;28;20070;-76
2020/12/09 10:15:51;;;;;;;14.70;7.80;;;;;;;5.19;75.38;99667.84;4996431;28;20081;-76
2020/12/09 10:18:16;;;;;;;14.45;7.00;;;;;;;5.24;75.02;99692.31;4996258;28;20034;-76
2020/12/09 10:20:42;;;;;;;13.18;7.95;;;;;;;5.41;75.01;99687.06;4997021;28;20041;-75
2020/12/09 10:23:07;;;;;;;14.50;7.50;;;;;;;5.20;74.91;99648.41;4962960;28;20040;-77
2020/12/09 10:25:33;;;;;;;12.80;7.65;;;;;;;5.31;75.00;99661.16;4996199;28;20121;-76
2020/12/09 10:27:58;;;;;;;14.55;7.55;;;;;;;5.59;74.55;99687.09;4996197;28;20494;-76
2020/12/09 10:30:23;;;;;;;14.73;7.57;;;;;;;5.63;74.46;99671.00;4978678;28;20361;-75
2020/12/09 10:32:49;;;;;;;15.00;7.85;;;;;;;5.56;74.52;99656.34;4995971;28;20030;-76
2020/12/09 10:35:14;;;;;;;15.10;7.70;;;;;;;5.66;74.18;99670.00;4962695;28;20031;-77
2020/12/09 10:37:40;;;;;;;13.38;7.93;;;;;;;5.46;74.76;99655.09;4995922;28;20108;-75
2020/12/09 10:40:05;;;;;;;12.93;6.90;;;;;;;5.62;74.66;99671.94;4978649;28;20074;-76
2020/12/09 10:42:31;;;;;;;13.27;7.32;;;;;;;5.68;74.89;99682.19;4995715;28;20041;-76
2020/12/09 10:44:56;;;;;;;14.07;7.72;;;;;;;5.58;75.04;99657.13;4995919;28;20038;-75
2020/12/09 10:47:21;;;;;;;12.88;7.50;;;;;;;5.38;74.24;99607.84;4978378;28;20042;-75
2020/12/09 10:49:47;;;;;;;13.98;7.50;;;;;;;5.64;74.55;99648.91;4995789;28;20031;-77
2020/12/09 10:52:13;;;;;;;17.55;8.15;;;;;;;5.52;74.56;99617.78;4995920;28;20514;-77
2020/12/09 10:54:39;;;;;;;15.52;7.65;;;;;;;5.60;74.30;99615.59;4978409;28;20034;-76
2020/12/09 10:57:05;;;;;;;13.68;7.53;;;;;;;5.88;74.19;99656.53;4978446;28;20113;-75
2020/12/09 10:59:31;;;;;;;18.02;8.35;;;;;;;5.74;74.58;99639.56;4995645;28;20113;-75
2020/12/09 11:01:57;;;;;;;15.02;7.50;;;;;;;5.94;74.26;99651.84;4962547;28;20069;-75
2020/12/09 11:04:22;;;;;;;14.30;7.88;;;;;;;5.89;74.39;99651.19;4978051;28;20436;-76
2020/12/09 11:06:48;;;;;;;14.27;7.53;;;;;;;5.70;74.48;99610.72;4978478;28;20035;-76
2020/12/09 11:09:13;;;;;;;13.15;7.13;;;;;;;5.77;74.70;99629.75;4978068;28;20066;-76
2020/12/09 11:14:36;;;;;;;13.98;8.05;;;;;;;5.78;75.58;99628.81;4989569;28;20483;-74
2020/12/09 11:17:06;;;;;;;14.35;7.65;;;;;;;5.67;75.10;99590.53;4995658;28;20041;-74
2020/12/09 11:19:32;;;;;;;15.40;8.00;;;;;;;5.83;74.72;99614.44;4994935;28;20038;-77
2020/12/09 11:21:58;;;;;;;13.95;7.18;;;;;;;5.87;74.91;99607.19;4995294;28;20068;-76
2020/12/09 11:24:24;;;;;;;14.63;7.55;;;;;;;5.96;74.42;99619.97;4977823;28;20392;-76
2020/12/09 11:26:50;;;;;;;13.23;7.45;;;;;;;5.85;74.57;99612.56;4977950;28;20022;-76
2020/12/09 11:29:15;;;;;;;13.98;7.53;;;;;;;5.80;75.43;99601.38;4995158;28;20037;-75
2020/12/09 11:31:40;;;;;;;14.00;7.50;;;;;;;5.98;74.81;99621.63;4995012;28;20046;-75
2020/12/09 11:34:06;;;;;;;16.05;7.38;;;;;;;5.94;74.70;99608.63;4995108;28;20030;-76
2020/12/09 11:36:32;;;;;;;17.85;9.50;;;;;;;5.96;74.59;99606.75;4994788;28;20476;-76
2020/12/09 11:38:57;;;;;;;17.05;9.07;;;;;;;5.94;74.66;99598.03;4994962;28;20058;-75
2020/12/09 11:41:28;;;;;;;12.07;6.90;;;;;;;5.96;74.30;99606.75;4994843;28;20574;-75